sensor_id;sensor_type;location;lat;lon;timestamp;P1;durP1;ratioP1;P2;durP2;ratioP2
3527;SDS011;1778;47.966;7.854;2022-07-23T00:00:14;9.85;;;8.95;;
3527;SDS011;1778;47.966;7.854;2022-07-23T00:01:16;9.43;;;8.57;;
3527;SDS011;1778;47.966;7.854;2022-07-23T00:02:23;10.40;;;9.00;;
3527;SDS011;1778;47.966;7.854;2022-07-23T00:03:25;9.60;;;8.70;;
3527;SDS011;1778;47.966;7.854;2022-07-23T00:04:27;10.32;;;9.43;;
3527;SDS011;1778;47.966;7.854;2022-07-23T00:05:29;9.50;;;8.70;;
3527;SDS011;1778;47.966;7.854;2022-07-23T00:06:31;10.15;;;9.25;;
3527;SDS011;1778;47.966;7.854;2022-07-23T00:07:32;10.05;;;9.05;;
3527;SDS011;1778;47.966;7.854;2022-07-23T00:08:35;13.82;;;9.43;;
3527;SDS011;1778;47.966;7.854;2022-07-23T00:09:36;9.52;;;8.57;;
3527;SDS011;1778;47.966;7.854;2022-07-23T00:10:38;10.05;;;9.10;;
3527;SDS011;1778;47.966;7.854;2022-07-23T00:11:40;15.80;;;9.70;;
3527;SDS011;1778;47.966;7.854;2022-07-23T00:12:41;23.83;;;13.77;;
3527;SDS011;1778;47.966;7.854;2022-07-23T00:13:52;10.20;;;9.18;;
3527;SDS011;1778;47.966;7.854;2022-07-23T00:14:55;9.88;;;8.98;;
3527;SDS011;1778;47.966;7.854;2022-07-23T00:15:57;11.82;;;9.05;;
3527;SDS011;1778;47.966;7.854;2022-07-23T00:16:59;10.43;;;9.52;;
3527;SDS011;1778;47.966;7.854;2022-07-23T00:18:01;9.50;;;8.60;;
3527;SDS011;1778;47.966;7.854;2022-07-23T00:19:02;9.13;;;8.32;;
3527;SDS011;1778;47.966;7.854;2022-07-23T00:20:05;9.80;;;8.80;;
3527;SDS011;1778;47.966;7.854;2022-07-23T00:21:07;10.00;;;9.10;;
3527;SDS011;1778;47.966;7.854;2022-07-23T00:22:09;9.52;;;8.63;;
3527;SDS011;1778;47.966;7.854;2022-07-23T00:23:10;8.82;;;7.93;;
3527;SDS011;1778;47.966;7.854;2022-07-23T00:24:12;9.90;;;8.90;;
3527;SDS011;1778;47.966;7.854;2022-07-23T00:25:13;8.43;;;7.72;;
3527;SDS011;1778;47.966;7.854;2022-07-23T00:26:32;9.55;;;8.65;;
3527;SDS011;1778;47.966;7.854;2022-07-23T00:27:33;8.98;;;8.18;;
3527;SDS011;1778;47.966;7.854;2022-07-23T00:28:35;8.88;;;8.18;;
3527;SDS011;1778;47.966;7.854;2022-07-23T00:29:36;9.50;;;8.60;;
3527;SDS011;1778;47.966;7.854;2022-07-23T00:30:38;8.57;;;7.88;;
3527;SDS011;1778;47.966;7.854;2022-07-23T00:31:40;9.48;;;8.68;;
3527;SDS011;1778;47.966;7.854;2022-07-23T00:32:49;9.52;;;7.95;;
3527;SDS011;1778;47.966;7.854;2022-07-23T00:33:56;8.73;;;7.78;;
3527;SDS011;1778;47.966;7.854;2022-07-23T00:35:04;9.25;;;8.35;;
3527;SDS011;1778;47.966;7.854;2022-07-23T00:36:06;9.98;;;8.43;;
3527;SDS011;1778;47.966;7.854;2022-07-23T00:37:08;9.63;;;8.65;;
3527;SDS011;1778;47.966;7.854;2022-07-23T00:38:09;9.07;;;8.02;;
3527;SDS011;1778;47.966;7.854;2022-07-23T00:39:12;9.60;;;8.63;;
3527;SDS011;1778;47.966;7.854;2022-07-23T00:40:14;9.57;;;8.52;;
3527;SDS011;1778;47.966;7.854;2022-07-23T00:41:16;9.15;;;7.93;;
3527;SDS011;1778;47.966;7.854;2022-07-23T00:42:18;9.05;;;8.20;;
3527;SDS011;1778;47.966;7.854;2022-07-23T00:43:20;9.02;;;8.23;;
3527;SDS011;1778;47.966;7.854;2022-07-23T00:44:27;9.27;;;8.32;;
3527;SDS011;1778;47.966;7.854;2022-07-23T00:45:29;9.05;;;8.25;;
3527;SDS011;1778;47.966;7.854;2022-07-23T00:46:31;9.15;;;8.35;;
3527;SDS011;1778;47.966;7.854;2022-07-23T00:47:33;8.07;;;7.35;;
3527;SDS011;1778;47.966;7.854;2022-07-23T00:48:34;8.73;;;7.95;;
3527;SDS011;1778;47.966;7.854;2022-07-23T00:49:36;8.60;;;7.88;;
3527;SDS011;1778;47.966;7.854;2022-07-23T00:50:37;10.40;;;9.32;;
3527;SDS011;1778;47.966;7.854;2022-07-23T00:51:39;8.38;;;7.78;;
3527;SDS011;1778;47.966;7.854;2022-07-23T00:52:42;8.73;;;8.02;;
3527;SDS011;1778;47.966;7.854;2022-07-23T00:53:44;8.85;;;7.97;;
3527;SDS011;1778;47.966;7.854;2022-07-23T00:54:48;8.90;;;8.10;;
3527;SDS011;1778;47.966;7.854;2022-07-23T00:55:51;9.70;;;8.65;;
3527;SDS011;1778;47.966;7.854;2022-07-23T00:56:54;9.73;;;8.02;;
3527;SDS011;1778;47.966;7.854;2022-07-23T00:57:56;9.68;;;8.82;;
3527;SDS011;1778;47.966;7.854;2022-07-23T00:58:59;10.15;;;9.15;;
3527;SDS011;1778;47.966;7.854;2022-07-23T01:00:06;8.38;;;7.75;;
3527;SDS011;1778;47.966;7.854;2022-07-23T01:01:11;10.02;;;8.80;;
3527;SDS011;1778;47.966;7.854;2022-07-23T01:02:12;9.63;;;8.73;;
3527;SDS011;1778;47.966;7.854;2022-07-23T01:03:14;9.40;;;8.60;;
3527;SDS011;1778;47.966;7.854;2022-07-23T01:04:15;10.43;;;9.52;;
3527;SDS011;1778;47.966;7.854;2022-07-23T01:05:18;10.45;;;8.65;;
3527;SDS011;1778;47.966;7.854;2022-07-23T01:06:23;9.43;;;8.57;;
3527;SDS011;1778;47.966;7.854;2022-07-23T01:07:25;9.10;;;8.30;;
3527;SDS011;1778;47.966;7.854;2022-07-23T01:08:27;13.13;;;8.98;;
3527;SDS011;1778;47.966;7.854;2022-07-23T01:09:28;11.52;;;8.48;;
3527;SDS011;1778;47.966;7.854;2022-07-23T01:10:31;9.95;;;9.05;;
3527;SDS011;1778;47.966;7.854;2022-07-23T01:11:34;9.63;;;8.70;;
3527;SDS011;1778;47.966;7.854;2022-07-23T01:12:39;9.25;;;8.05;;
3527;SDS011;1778;47.966;7.854;2022-07-23T01:13:42;9.45;;;8.73;;
3527;SDS011;1778;47.966;7.854;2022-07-23T01:14:44;9.98;;;8.85;;
3527;SDS011;1778;47.966;7.854;2022-07-23T01:15:45;8.57;;;7.85;;
3527;SDS011;1778;47.966;7.854;2022-07-23T01:16:48;10.00;;;8.40;;
3527;SDS011;1778;47.966;7.854;2022-07-23T01:17:50;9.18;;;8.38;;
3527;SDS011;1778;47.966;7.854;2022-07-23T01:18:52;9.43;;;8.63;;
3527;SDS011;1778;47.966;7.854;2022-07-23T01:19:54;10.00;;;9.10;;
3527;SDS011;1778;47.966;7.854;2022-07-23T01:20:55;10.60;;;9.50;;
3527;SDS011;1778;47.966;7.854;2022-07-23T01:21:57;8.80;;;8.10;;
3527;SDS011;1778;47.966;7.854;2022-07-23T01:23:02;9.95;;;9.00;;
3527;SDS011;1778;47.966;7.854;2022-07-23T01:24:04;9.75;;;8.85;;
3527;SDS011;1778;47.966;7.854;2022-07-23T01:25:08;9.88;;;8.98;;
3527;SDS011;1778;47.966;7.854;2022-07-23T01:26:13;9.13;;;8.18;;
3527;SDS011;1778;47.966;7.854;2022-07-23T01:27:16;14.13;;;9.55;;
3527;SDS011;1778;47.966;7.854;2022-07-23T01:28:23;11.38;;;9.35;;
3527;SDS011;1778;47.966;7.854;2022-07-23T01:29:24;9.15;;;8.25;;
3527;SDS011;1778;47.966;7.854;2022-07-23T01:30:27;9.60;;;8.70;;
3527;SDS011;1778;47.966;7.854;2022-07-23T01:31:31;11.90;;;9.77;;
3527;SDS011;1778;47.966;7.854;2022-07-23T01:32:33;9.85;;;8.85;;
3527;SDS011;1778;47.966;7.854;2022-07-23T01:33:35;10.05;;;9.15;;
3527;SDS011;1778;47.966;7.854;2022-07-23T01:34:36;10.50;;;9.48;;
3527;SDS011;1778;47.966;7.854;2022-07-23T01:35:38;12.10;;;9.02;;
3527;SDS011;1778;47.966;7.854;2022-07-23T01:36:41;10.32;;;9.32;;
3527;SDS011;1778;47.966;7.854;2022-07-23T01:37:43;10.52;;;9.43;;
3527;SDS011;1778;47.966;7.854;2022-07-23T01:38:47;9.27;;;8.52;;
3527;SDS011;1778;47.966;7.854;2022-07-23T01:39:51;11.55;;;10.52;;
3527;SDS011;1778;47.966;7.854;2022-07-23T01:40:53;14.15;;;12.95;;
3527;SDS011;1778;47.966;7.854;2022-07-23T01:41:59;17.35;;;15.45;;
3527;SDS011;1778;47.966;7.854;2022-07-23T01:43:01;19.77;;;18.17;;
3527;SDS011;1778;47.966;7.854;2022-07-23T01:44:05;21.23;;;19.27;;
3527;SDS011;1778;47.966;7.854;2022-07-23T01:45:06;20.08;;;18.38;;
3527;SDS011;1778;47.966;7.854;2022-07-23T01:46:10;18.98;;;17.05;;
3527;SDS011;1778;47.966;7.854;2022-07-23T01:47:16;16.85;;;15.52;;
3527;SDS011;1778;47.966;7.854;2022-07-23T01:48:19;18.10;;;16.40;;
3527;SDS011;1778;47.966;7.854;2022-07-23T01:49:36;17.60;;;16.10;;
3527;SDS011;1778;47.966;7.854;2022-07-23T01:51:00;18.15;;;16.45;;
3527;SDS011;1778;47.966;7.854;2022-07-23T01:52:14;17.67;;;16.05;;
3527;SDS011;1778;47.966;7.854;2022-07-23T01:53:20;18.67;;;16.92;;
3527;SDS011;1778;47.966;7.854;2022-07-23T01:54:22;19.05;;;17.17;;
3527;SDS011;1778;47.966;7.854;2022-07-23T01:55:24;16.67;;;14.85;;
3527;SDS011;1778;47.966;7.854;2022-07-23T01:56:26;17.25;;;15.55;;
3527;SDS011;1778;47.966;7.854;2022-07-23T01:57:27;17.88;;;16.15;;
3527;SDS011;1778;47.966;7.854;2022-07-23T01:58:29;17.48;;;15.82;;
3527;SDS011;1778;47.966;7.854;2022-07-23T01:59:31;17.40;;;15.90;;
3527;SDS011;1778;47.966;7.854;2022-07-23T02:00:34;16.58;;;15.07;;
3527;SDS011;1778;47.966;7.854;2022-07-23T02:01:36;16.20;;;14.80;;
3527;SDS011;1778;47.966;7.854;2022-07-23T02:02:38;15.27;;;13.70;;
3527;SDS011;1778;47.966;7.854;2022-07-23T02:03:40;17.42;;;15.48;;
3527;SDS011;1778;47.966;7.854;2022-07-23T02:04:43;14.68;;;13.30;;
3527;SDS011;1778;47.966;7.854;2022-07-23T02:05:45;15.80;;;14.30;;
3527;SDS011;1778;47.966;7.854;2022-07-23T02:06:48;15.75;;;14.45;;
3527;SDS011;1778;47.966;7.854;2022-07-23T02:07:50;16.63;;;15.13;;
3527;SDS011;1778;47.966;7.854;2022-07-23T02:08:52;15.47;;;14.17;;
3527;SDS011;1778;47.966;7.854;2022-07-23T02:09:55;15.38;;;13.98;;
3527;SDS011;1778;47.966;7.854;2022-07-23T02:10:59;17.17;;;14.90;;
3527;SDS011;1778;47.966;7.854;2022-07-23T02:12:01;17.35;;;15.55;;
3527;SDS011;1778;47.966;7.854;2022-07-23T02:13:04;16.23;;;14.15;;
3527;SDS011;1778;47.966;7.854;2022-07-23T02:14:06;15.38;;;13.95;;
3527;SDS011;1778;47.966;7.854;2022-07-23T02:15:08;17.23;;;15.47;;
3527;SDS011;1778;47.966;7.854;2022-07-23T02:16:12;16.00;;;14.43;;
3527;SDS011;1778;47.966;7.854;2022-07-23T02:17:14;15.67;;;14.27;;
3527;SDS011;1778;47.966;7.854;2022-07-23T02:18:16;15.38;;;14.05;;
3527;SDS011;1778;47.966;7.854;2022-07-23T02:19:18;15.33;;;13.40;;
3527;SDS011;1778;47.966;7.854;2022-07-23T02:20:19;14.95;;;13.65;;
3527;SDS011;1778;47.966;7.854;2022-07-23T02:21:21;15.43;;;13.50;;
3527;SDS011;1778;47.966;7.854;2022-07-23T02:22:22;15.90;;;14.30;;
3527;SDS011;1778;47.966;7.854;2022-07-23T02:23:24;14.50;;;13.03;;
3527;SDS011;1778;47.966;7.854;2022-07-23T02:24:27;14.37;;;12.97;;
3527;SDS011;1778;47.966;7.854;2022-07-23T02:25:29;15.13;;;13.83;;
3527;SDS011;1778;47.966;7.854;2022-07-23T02:26:34;16.33;;;13.73;;
3527;SDS011;1778;47.966;7.854;2022-07-23T02:27:38;14.70;;;13.30;;
3527;SDS011;1778;47.966;7.854;2022-07-23T02:28:40;13.77;;;12.50;;
3527;SDS011;1778;47.966;7.854;2022-07-23T02:29:42;13.13;;;12.03;;
3527;SDS011;1778;47.966;7.854;2022-07-23T02:30:43;12.37;;;11.27;;
3527;SDS011;1778;47.966;7.854;2022-07-23T02:31:45;13.17;;;11.80;;
3527;SDS011;1778;47.966;7.854;2022-07-23T02:32:47;13.40;;;12.10;;
3527;SDS011;1778;47.966;7.854;2022-07-23T02:33:49;13.30;;;12.20;;
3527;SDS011;1778;47.966;7.854;2022-07-23T02:34:51;13.53;;;12.13;;
3527;SDS011;1778;47.966;7.854;2022-07-23T02:35:54;12.73;;;11.50;;
3527;SDS011;1778;47.966;7.854;2022-07-23T02:36:56;11.90;;;10.80;;
3527;SDS011;1778;47.966;7.854;2022-07-23T02:38:00;11.97;;;11.00;;
3527;SDS011;1778;47.966;7.854;2022-07-23T02:39:04;12.87;;;11.67;;
3527;SDS011;1778;47.966;7.854;2022-07-23T02:40:07;13.20;;;12.10;;
3527;SDS011;1778;47.966;7.854;2022-07-23T02:41:12;12.90;;;11.53;;
3527;SDS011;1778;47.966;7.854;2022-07-23T02:42:15;12.33;;;11.17;;
3527;SDS011;1778;47.966;7.854;2022-07-23T02:43:17;13.43;;;12.23;;
3527;SDS011;1778;47.966;7.854;2022-07-23T02:44:20;12.97;;;11.70;;
3527;SDS011;1778;47.966;7.854;2022-07-23T02:45:25;13.77;;;12.57;;
3527;SDS011;1778;47.966;7.854;2022-07-23T02:46:28;12.17;;;10.90;;
3527;SDS011;1778;47.966;7.854;2022-07-23T02:47:30;13.53;;;12.20;;
3527;SDS011;1778;47.966;7.854;2022-07-23T02:48:34;13.50;;;12.20;;
3527;SDS011;1778;47.966;7.854;2022-07-23T02:49:36;14.33;;;13.03;;
3527;SDS011;1778;47.966;7.854;2022-07-23T02:50:39;13.70;;;12.40;;
3527;SDS011;1778;47.966;7.854;2022-07-23T02:51:41;13.33;;;11.17;;
3527;SDS011;1778;47.966;7.854;2022-07-23T02:52:43;13.23;;;11.83;;
3527;SDS011;1778;47.966;7.854;2022-07-23T02:53:44;12.70;;;11.40;;
3527;SDS011;1778;47.966;7.854;2022-07-23T02:54:46;12.33;;;11.10;;
3527;SDS011;1778;47.966;7.854;2022-07-23T02:55:49;12.93;;;11.77;;
3527;SDS011;1778;47.966;7.854;2022-07-23T02:56:51;12.93;;;11.73;;
3527;SDS011;1778;47.966;7.854;2022-07-23T02:57:53;12.40;;;11.30;;
3527;SDS011;1778;47.966;7.854;2022-07-23T02:58:55;12.10;;;11.00;;
3527;SDS011;1778;47.966;7.854;2022-07-23T02:59:56;11.90;;;10.70;;
3527;SDS011;1778;47.966;7.854;2022-07-23T03:00:58;11.43;;;10.43;;
3527;SDS011;1778;47.966;7.854;2022-07-23T03:02:00;14.17;;;11.80;;
3527;SDS011;1778;47.966;7.854;2022-07-23T03:03:01;11.60;;;10.60;;
3527;SDS011;1778;47.966;7.854;2022-07-23T03:04:04;11.40;;;10.40;;
3527;SDS011;1778;47.966;7.854;2022-07-23T03:05:06;13.27;;;11.20;;
3527;SDS011;1778;47.966;7.854;2022-07-23T03:06:08;13.87;;;12.00;;
3527;SDS011;1778;47.966;7.854;2022-07-23T03:07:12;12.63;;;11.53;;
3527;SDS011;1778;47.966;7.854;2022-07-23T03:08:14;11.70;;;10.60;;
3527;SDS011;1778;47.966;7.854;2022-07-23T03:09:20;12.23;;;11.13;;
3527;SDS011;1778;47.966;7.854;2022-07-23T03:10:21;13.23;;;11.83;;
3527;SDS011;1778;47.966;7.854;2022-07-23T03:11:23;12.77;;;11.47;;
3527;SDS011;1778;47.966;7.854;2022-07-23T03:12:24;15.70;;;12.17;;
3527;SDS011;1778;47.966;7.854;2022-07-23T03:13:26;15.17;;;11.90;;
3527;SDS011;1778;47.966;7.854;2022-07-23T03:14:29;13.40;;;10.37;;
3527;SDS011;1778;47.966;7.854;2022-07-23T03:15:31;12.23;;;11.10;;
3527;SDS011;1778;47.966;7.854;2022-07-23T03:16:32;10.50;;;9.60;;
3527;SDS011;1778;47.966;7.854;2022-07-23T03:17:34;11.77;;;10.57;;
3527;SDS011;1778;47.966;7.854;2022-07-23T03:18:36;12.60;;;11.37;;
3527;SDS011;1778;47.966;7.854;2022-07-23T03:19:41;12.37;;;11.10;;
3527;SDS011;1778;47.966;7.854;2022-07-23T03:20:43;13.97;;;11.07;;
3527;SDS011;1778;47.966;7.854;2022-07-23T03:21:46;13.30;;;12.00;;
3527;SDS011;1778;47.966;7.854;2022-07-23T03:22:47;12.40;;;11.10;;
3527;SDS011;1778;47.966;7.854;2022-07-23T03:23:50;12.20;;;10.90;;
3527;SDS011;1778;47.966;7.854;2022-07-23T03:24:52;13.27;;;11.90;;
3527;SDS011;1778;47.966;7.854;2022-07-23T03:25:58;11.97;;;10.97;;
3527;SDS011;1778;47.966;7.854;2022-07-23T03:27:00;12.13;;;10.90;;
3527;SDS011;1778;47.966;7.854;2022-07-23T03:28:01;13.30;;;11.93;;
3527;SDS011;1778;47.966;7.854;2022-07-23T03:29:03;13.37;;;11.97;;
3527;SDS011;1778;47.966;7.854;2022-07-23T03:30:05;14.37;;;12.07;;
3527;SDS011;1778;47.966;7.854;2022-07-23T03:31:08;13.60;;;11.57;;
3527;SDS011;1778;47.966;7.854;2022-07-23T03:32:11;13.63;;;11.70;;
3527;SDS011;1778;47.966;7.854;2022-07-23T03:33:14;11.80;;;10.80;;
3527;SDS011;1778;47.966;7.854;2022-07-23T03:34:19;14.00;;;12.50;;
3527;SDS011;1778;47.966;7.854;2022-07-23T03:35:21;11.00;;;10.07;;
3527;SDS011;1778;47.966;7.854;2022-07-23T03:36:38;12.93;;;11.80;;
3527;SDS011;1778;47.966;7.854;2022-07-23T03:37:40;13.27;;;11.90;;
3527;SDS011;1778;47.966;7.854;2022-07-23T03:38:44;12.53;;;11.37;;
3527;SDS011;1778;47.966;7.854;2022-07-23T03:39:46;13.80;;;11.57;;
3527;SDS011;1778;47.966;7.854;2022-07-23T03:40:49;12.45;;;11.25;;
3527;SDS011;1778;47.966;7.854;2022-07-23T03:41:51;12.70;;;11.40;;
3527;SDS011;1778;47.966;7.854;2022-07-23T03:42:53;12.83;;;11.50;;
3527;SDS011;1778;47.966;7.854;2022-07-23T03:43:54;12.53;;;11.33;;
3527;SDS011;1778;47.966;7.854;2022-07-23T03:44:56;13.80;;;11.63;;
3527;SDS011;1778;47.966;7.854;2022-07-23T03:45:59;11.83;;;10.83;;
3527;SDS011;1778;47.966;7.854;2022-07-23T03:47:00;13.53;;;12.10;;
3527;SDS011;1778;47.966;7.854;2022-07-23T03:48:05;13.30;;;10.70;;
3527;SDS011;1778;47.966;7.854;2022-07-23T03:49:06;13.33;;;11.93;;
3527;SDS011;1778;47.966;7.854;2022-07-23T03:50:09;12.13;;;11.13;;
3527;SDS011;1778;47.966;7.854;2022-07-23T03:51:11;13.27;;;11.97;;
3527;SDS011;1778;47.966;7.854;2022-07-23T03:52:13;12.63;;;11.43;;
3527;SDS011;1778;47.966;7.854;2022-07-23T03:53:15;11.87;;;10.77;;
3527;SDS011;1778;47.966;7.854;2022-07-23T03:54:17;13.53;;;10.80;;
3527;SDS011;1778;47.966;7.854;2022-07-23T03:55:19;13.77;;;11.13;;
3527;SDS011;1778;47.966;7.854;2022-07-23T03:56:22;11.67;;;10.57;;
3527;SDS011;1778;47.966;7.854;2022-07-23T03:57:23;12.20;;;11.00;;
3527;SDS011;1778;47.966;7.854;2022-07-23T03:58:25;12.83;;;11.63;;
3527;SDS011;1778;47.966;7.854;2022-07-23T03:59:26;13.37;;;12.03;;
3527;SDS011;1778;47.966;7.854;2022-07-23T04:00:28;12.43;;;11.27;;
3527;SDS011;1778;47.966;7.854;2022-07-23T04:01:29;13.37;;;12.20;;
3527;SDS011;1778;47.966;7.854;2022-07-23T04:02:32;13.07;;;11.73;;
3527;SDS011;1778;47.966;7.854;2022-07-23T04:03:34;12.87;;;11.70;;
3527;SDS011;1778;47.966;7.854;2022-07-23T04:04:35;12.23;;;11.13;;
3527;SDS011;1778;47.966;7.854;2022-07-23T04:05:37;12.07;;;10.80;;
3527;SDS011;1778;47.966;7.854;2022-07-23T04:06:40;13.00;;;11.80;;
3527;SDS011;1778;47.966;7.854;2022-07-23T04:07:42;12.67;;;11.47;;
3527;SDS011;1778;47.966;7.854;2022-07-23T04:08:44;12.43;;;11.23;;
3527;SDS011;1778;47.966;7.854;2022-07-23T04:09:45;13.03;;;11.70;;
3527;SDS011;1778;47.966;7.854;2022-07-23T04:10:47;12.53;;;11.37;;
3527;SDS011;1778;47.966;7.854;2022-07-23T04:11:49;13.40;;;12.20;;
3527;SDS011;1778;47.966;7.854;2022-07-23T04:12:50;13.50;;;12.20;;
3527;SDS011;1778;47.966;7.854;2022-07-23T04:13:52;12.80;;;11.50;;
3527;SDS011;1778;47.966;7.854;2022-07-23T04:14:55;13.80;;;12.50;;
3527;SDS011;1778;47.966;7.854;2022-07-23T04:15:57;13.47;;;12.27;;
3527;SDS011;1778;47.966;7.854;2022-07-23T04:16:58;13.13;;;11.80;;
3527;SDS011;1778;47.966;7.854;2022-07-23T04:18:00;13.30;;;12.00;;
3527;SDS011;1778;47.966;7.854;2022-07-23T04:19:17;13.30;;;12.10;;
3527;SDS011;1778;47.966;7.854;2022-07-23T04:20:28;13.40;;;11.33;;
3527;SDS011;1778;47.966;7.854;2022-07-23T04:21:33;12.53;;;11.23;;
3527;SDS011;1778;47.966;7.854;2022-07-23T04:22:35;15.80;;;12.13;;
3527;SDS011;1778;47.966;7.854;2022-07-23T04:23:37;13.77;;;12.17;;
3527;SDS011;1778;47.966;7.854;2022-07-23T04:24:40;11.53;;;10.63;;
3527;SDS011;1778;47.966;7.854;2022-07-23T04:25:42;13.07;;;11.87;;
3527;SDS011;1778;47.966;7.854;2022-07-23T04:26:45;13.00;;;11.70;;
3527;SDS011;1778;47.966;7.854;2022-07-23T04:27:46;11.50;;;10.50;;
3527;SDS011;1778;47.966;7.854;2022-07-23T04:28:48;12.87;;;11.40;;
3527;SDS011;1778;47.966;7.854;2022-07-23T04:29:52;11.97;;;10.80;;
3527;SDS011;1778;47.966;7.854;2022-07-23T04:30:55;15.93;;;11.90;;
3527;SDS011;1778;47.966;7.854;2022-07-23T04:31:58;12.67;;;11.47;;
3527;SDS011;1778;47.966;7.854;2022-07-23T04:33:00;17.70;;;10.90;;
3527;SDS011;1778;47.966;7.854;2022-07-23T04:34:07;12.60;;;11.50;;
3527;SDS011;1778;47.966;7.854;2022-07-23T04:35:09;12.30;;;11.00;;
3527;SDS011;1778;47.966;7.854;2022-07-23T04:36:10;12.70;;;11.40;;
3527;SDS011;1778;47.966;7.854;2022-07-23T04:37:12;11.93;;;10.73;;
3527;SDS011;1778;47.966;7.854;2022-07-23T04:38:13;11.33;;;10.27;;
3527;SDS011;1778;47.966;7.854;2022-07-23T04:39:16;11.20;;;10.20;;
3527;SDS011;1778;47.966;7.854;2022-07-23T04:40:19;11.07;;;9.87;;
3527;SDS011;1778;47.966;7.854;2022-07-23T04:41:22;10.97;;;10.07;;
3527;SDS011;1778;47.966;7.854;2022-07-23T04:42:24;11.13;;;10.03;;
3527;SDS011;1778;47.966;7.854;2022-07-23T04:43:26;11.40;;;10.30;;
3527;SDS011;1778;47.966;7.854;2022-07-23T04:44:28;11.77;;;10.77;;
3527;SDS011;1778;47.966;7.854;2022-07-23T04:45:30;11.43;;;10.37;;
3527;SDS011;1778;47.966;7.854;2022-07-23T04:46:31;12.07;;;10.57;;
3527;SDS011;1778;47.966;7.854;2022-07-23T04:47:34;11.87;;;10.70;;
3527;SDS011;1778;47.966;7.854;2022-07-23T04:48:36;11.67;;;10.47;;
3527;SDS011;1778;47.966;7.854;2022-07-23T04:49:42;11.50;;;10.50;;
3527;SDS011;1778;47.966;7.854;2022-07-23T04:50:44;11.07;;;9.90;;
3527;SDS011;1778;47.966;7.854;2022-07-23T04:51:52;12.70;;;11.50;;
3527;SDS011;1778;47.966;7.854;2022-07-23T04:52:53;11.10;;;10.00;;
3527;SDS011;1778;47.966;7.854;2022-07-23T04:53:56;12.63;;;11.10;;
3527;SDS011;1778;47.966;7.854;2022-07-23T04:54:57;12.37;;;11.17;;
3527;SDS011;1778;47.966;7.854;2022-07-23T04:55:59;11.80;;;10.80;;
3527;SDS011;1778;47.966;7.854;2022-07-23T04:57:02;11.83;;;10.60;;
3527;SDS011;1778;47.966;7.854;2022-07-23T04:58:04;11.40;;;10.30;;
3527;SDS011;1778;47.966;7.854;2022-07-23T04:59:06;12.43;;;11.20;;
3527;SDS011;1778;47.966;7.854;2022-07-23T05:00:07;11.43;;;10.53;;
3527;SDS011;1778;47.966;7.854;2022-07-23T05:01:10;11.20;;;10.20;;
3527;SDS011;1778;47.966;7.854;2022-07-23T05:02:11;11.70;;;10.70;;
3527;SDS011;1778;47.966;7.854;2022-07-23T05:03:13;11.63;;;10.07;;
3527;SDS011;1778;47.966;7.854;2022-07-23T05:04:16;11.93;;;10.73;;
3527;SDS011;1778;47.966;7.854;2022-07-23T05:05:19;11.00;;;9.93;;
3527;SDS011;1778;47.966;7.854;2022-07-23T05:06:21;11.33;;;10.33;;
3527;SDS011;1778;47.966;7.854;2022-07-23T05:07:22;11.40;;;10.20;;
3527;SDS011;1778;47.966;7.854;2022-07-23T05:08:25;11.70;;;10.50;;
3527;SDS011;1778;47.966;7.854;2022-07-23T05:09:29;11.97;;;10.70;;
3527;SDS011;1778;47.966;7.854;2022-07-23T05:10:31;12.60;;;11.30;;
3527;SDS011;1778;47.966;7.854;2022-07-23T05:11:36;15.30;;;10.20;;
3527;SDS011;1778;47.966;7.854;2022-07-23T05:12:38;11.17;;;10.10;;
3527;SDS011;1778;47.966;7.854;2022-07-23T05:13:39;11.10;;;10.10;;
3527;SDS011;1778;47.966;7.854;2022-07-23T05:14:41;11.20;;;10.20;;
3527;SDS011;1778;47.966;7.854;2022-07-23T05:15:43;13.43;;;10.23;;
3527;SDS011;1778;47.966;7.854;2022-07-23T05:16:45;10.47;;;9.47;;
3527;SDS011;1778;47.966;7.854;2022-07-23T05:17:52;11.57;;;10.47;;
3527;SDS011;1778;47.966;7.854;2022-07-23T05:18:54;12.37;;;10.30;;
3527;SDS011;1778;47.966;7.854;2022-07-23T05:19:55;12.10;;;11.00;;
3527;SDS011;1778;47.966;7.854;2022-07-23T05:21:02;11.90;;;10.80;;
3527;SDS011;1778;47.966;7.854;2022-07-23T05:22:04;11.10;;;9.95;;
3527;SDS011;1778;47.966;7.854;2022-07-23T05:23:06;10.60;;;9.55;;
3527;SDS011;1778;47.966;7.854;2022-07-23T05:24:09;10.57;;;9.57;;
3527;SDS011;1778;47.966;7.854;2022-07-23T05:25:10;11.43;;;10.40;;
3527;SDS011;1778;47.966;7.854;2022-07-23T05:26:12;10.90;;;9.93;;
3527;SDS011;1778;47.966;7.854;2022-07-23T05:27:14;11.05;;;10.05;;
3527;SDS011;1778;47.966;7.854;2022-07-23T05:28:16;11.40;;;10.25;;
3527;SDS011;1778;47.966;7.854;2022-07-23T05:29:22;10.30;;;9.40;;
3527;SDS011;1778;47.966;7.854;2022-07-23T05:30:24;11.10;;;10.13;;
3527;SDS011;1778;47.966;7.854;2022-07-23T05:31:31;10.65;;;9.65;;
3527;SDS011;1778;47.966;7.854;2022-07-23T05:32:33;10.68;;;9.73;;
3527;SDS011;1778;47.966;7.854;2022-07-23T05:33:44;11.52;;;10.43;;
3527;SDS011;1778;47.966;7.854;2022-07-23T05:34:46;10.82;;;9.73;;
3527;SDS011;1778;47.966;7.854;2022-07-23T05:35:47;10.75;;;9.85;;
3527;SDS011;1778;47.966;7.854;2022-07-23T05:37:01;11.07;;;10.10;;
3527;SDS011;1778;47.966;7.854;2022-07-23T05:38:03;10.88;;;9.98;;
3527;SDS011;1778;47.966;7.854;2022-07-23T05:39:05;10.32;;;9.43;;
3527;SDS011;1778;47.966;7.854;2022-07-23T05:40:10;10.65;;;9.57;;
3527;SDS011;1778;47.966;7.854;2022-07-23T05:41:12;10.52;;;9.52;;
3527;SDS011;1778;47.966;7.854;2022-07-23T05:42:14;11.85;;;9.45;;
3527;SDS011;1778;47.966;7.854;2022-07-23T05:43:16;10.48;;;9.48;;
3527;SDS011;1778;47.966;7.854;2022-07-23T05:44:17;10.88;;;9.88;;
3527;SDS011;1778;47.966;7.854;2022-07-23T05:45:19;12.32;;;10.02;;
3527;SDS011;1778;47.966;7.854;2022-07-23T05:46:21;10.25;;;9.35;;
3527;SDS011;1778;47.966;7.854;2022-07-23T05:47:27;10.63;;;9.20;;
3527;SDS011;1778;47.966;7.854;2022-07-23T05:48:29;10.90;;;9.90;;
3527;SDS011;1778;47.966;7.854;2022-07-23T05:49:36;10.45;;;9.50;;
3527;SDS011;1778;47.966;7.854;2022-07-23T05:50:57;10.18;;;9.15;;
3527;SDS011;1778;47.966;7.854;2022-07-23T05:52:07;10.43;;;9.43;;
3527;SDS011;1778;47.966;7.854;2022-07-23T05:53:32;10.55;;;9.57;;
3527;SDS011;1778;47.966;7.854;2022-07-23T05:54:39;10.40;;;9.38;;
3527;SDS011;1778;47.966;7.854;2022-07-23T05:55:41;10.95;;;9.80;;
3527;SDS011;1778;47.966;7.854;2022-07-23T05:56:42;10.60;;;9.60;;
3527;SDS011;1778;47.966;7.854;2022-07-23T05:57:45;10.50;;;9.57;;
3527;SDS011;1778;47.966;7.854;2022-07-23T05:58:47;11.10;;;10.10;;
3527;SDS011;1778;47.966;7.854;2022-07-23T05:59:51;11.93;;;10.73;;
3527;SDS011;1778;47.966;7.854;2022-07-23T06:00:52;11.40;;;10.32;;
3527;SDS011;1778;47.966;7.854;2022-07-23T06:01:54;10.88;;;9.88;;
3527;SDS011;1778;47.966;7.854;2022-07-23T06:02:56;12.20;;;11.00;;
3527;SDS011;1778;47.966;7.854;2022-07-23T06:03:59;11.65;;;10.65;;
3527;SDS011;1778;47.966;7.854;2022-07-23T06:05:07;11.65;;;10.45;;
3527;SDS011;1778;47.966;7.854;2022-07-23T06:06:10;11.65;;;9.88;;
3527;SDS011;1778;47.966;7.854;2022-07-23T06:07:11;11.88;;;10.18;;
3527;SDS011;1778;47.966;7.854;2022-07-23T06:08:13;11.20;;;10.00;;
3527;SDS011;1778;47.966;7.854;2022-07-23T06:09:15;12.10;;;10.88;;
3527;SDS011;1778;47.966;7.854;2022-07-23T06:10:18;11.98;;;10.68;;
3527;SDS011;1778;47.966;7.854;2022-07-23T06:11:19;11.13;;;10.13;;
3527;SDS011;1778;47.966;7.854;2022-07-23T06:12:21;12.20;;;10.15;;
3527;SDS011;1778;47.966;7.854;2022-07-23T06:13:23;10.60;;;9.55;;
3527;SDS011;1778;47.966;7.854;2022-07-23T06:14:25;11.35;;;10.15;;
3527;SDS011;1778;47.966;7.854;2022-07-23T06:15:30;11.23;;;9.85;;
3527;SDS011;1778;47.966;7.854;2022-07-23T06:16:31;9.88;;;8.85;;
3527;SDS011;1778;47.966;7.854;2022-07-23T06:17:33;11.18;;;10.07;;
3527;SDS011;1778;47.966;7.854;2022-07-23T06:18:36;10.95;;;9.95;;
3527;SDS011;1778;47.966;7.854;2022-07-23T06:19:37;10.13;;;9.23;;
3527;SDS011;1778;47.966;7.854;2022-07-23T06:20:39;15.90;;;10.63;;
3527;SDS011;1778;47.966;7.854;2022-07-23T06:21:41;11.90;;;10.70;;
3527;SDS011;1778;47.966;7.854;2022-07-23T06:22:48;11.13;;;10.02;;